Wingina, Virginia
Current Conditions -  °F | °C
As of 2:15 PM on Monday 22 Dec 2014 (Local Time) from KFVX Reporting Station
Haze Haze  
Wind Chill: 31°   Ceiling: 400
Heat Index: 37°   Visibility: 1.7mi
Dew Point: 37°   Wind: 7mph
Humidity: 100%   Direction: 10°N
Pressure: 30.12"   Gusts: NA
Location:  37.64°N, 78.73°W
Report Text: KFVX 221915Z AUTO 01006KT 1 3/4SM BR OVC004 03/03 A3012 RMK AO2 T00250025
Loading
Personal Weather Stations






























Interactive Weather Map New forecast layout! Learn more

10-Day Weather Forecast

Advertisements
Track Severe Weather on mobile